Terminal Aerodrome Forecast
Issued by NWS

Home | Current Version | Previous Version | Graphics & Text | Print | Product List | Glossary On
Versions: 1 2 3 4 5 6 7 8 9 10 11 12 13 14 15 16 17 18 19 20
171
FTUS43 KOAX 282320
TAFCDR
TAF
KCDR 282320Z 2900/2924 02012KT P6SM VCSH BKN080
      TEMPO 2900/2902 02023G40KT 5SM -TSRA BKN060CB
     FM290300 VRB05KT P6SM SKC
     FM291700 31010G18KT P6SM SCT070=

USA.gov is the U.S. government's official web portal to all federal, state and local government web resources and services.